createdAt,value
2022-08-28T00:01:48.946Z,90.82
2022-08-28T00:04:18.435Z,83.85
2022-08-28T00:06:48.588Z,87.00
2022-08-28T00:09:17.982Z,99.45
2022-08-28T00:11:47.201Z,91.07
2022-08-28T00:14:19.295Z,86.20
2022-08-28T00:16:50.700Z,96.10
2022-08-28T00:19:22.892Z,92.32
2022-08-28T00:21:53.021Z,91.95
2022-08-28T00:24:22.285Z,96.43
2022-08-28T00:27:08.963Z,95.50
2022-08-28T00:29:38.590Z,85.47
2022-08-28T00:32:09.663Z,88.57
2022-08-28T00:34:38.948Z,83.68
2022-08-28T00:37:08.476Z,90.63
2022-08-28T00:39:37.764Z,85.20
2022-08-28T00:42:07.637Z,89.97
2022-08-28T00:44:38.431Z,80.38
2022-08-28T00:47:10.172Z,93.68
2022-08-28T00:49:48.835Z,91.13
2022-08-28T00:52:18.867Z,83.57
2022-08-28T00:54:58.796Z,85.18
2022-08-28T00:57:33.101Z,89.85
2022-08-28T01:00:02.521Z,89.30
2022-08-28T01:02:33.281Z,87.10
2022-08-28T01:05:02.869Z,82.03
2022-08-28T01:07:32.176Z,96.10
2022-08-28T01:10:01.520Z,87.55
2022-08-28T01:12:34.037Z,92.22
2022-08-28T01:17:44.101Z,94.57
2022-08-28T01:20:19.389Z,96.78
2022-08-28T01:22:59.299Z,88.18
2022-08-28T01:25:34.877Z,90.50
2022-08-28T01:28:14.838Z,94.05
2022-08-28T01:30:48.002Z,86.63
2022-08-28T01:33:17.554Z,95.10
2022-08-28T01:35:48.986Z,89.35
2022-08-28T01:38:20.243Z,96.22
2022-08-28T01:40:57.433Z,97.22
2022-08-28T01:43:28.985Z,91.43
2022-08-28T01:46:02.388Z,91.30
2022-08-28T01:48:37.176Z,80.60
2022-08-28T01:51:07.712Z,90.88
2022-08-28T01:53:37.254Z,93.05
2022-08-28T01:56:16.110Z,91.07
2022-08-28T01:58:48.107Z,86.30
2022-08-28T02:01:20.603Z,100.20
2022-08-28T02:03:53.076Z,87.70
2022-08-28T02:08:55.719Z,90.50
2022-08-28T02:11:26.967Z,90.07
2022-08-28T02:13:56.447Z,109.50
2022-08-28T02:16:26.079Z,103.10
2022-08-28T02:18:55.342Z,108.57
2022-08-28T02:21:25.278Z,104.20
2022-08-28T02:23:55.219Z,105.93
2022-08-28T02:26:26.109Z,118.40
2022-08-28T02:28:55.251Z,93.63
2022-08-28T02:31:24.394Z,102.40
2022-08-28T02:33:53.622Z,108.53
2022-08-28T02:36:25.892Z,101.78
2022-08-28T02:38:57.741Z,98.75
2022-08-28T02:41:28.803Z,96.13
2022-08-28T02:43:57.944Z,99.68
2022-08-28T02:46:27.528Z,112.90
2022-08-28T02:48:56.927Z,107.65
2022-08-28T02:51:26.298Z,94.00
2022-08-28T02:53:55.503Z,107.85
2022-08-28T02:56:24.720Z,113.80
2022-08-28T02:58:56.600Z,104.75
2022-08-28T03:01:26.101Z,111.20
2022-08-28T03:03:55.512Z,109.72
2022-08-28T03:06:24.650Z,109.70
2022-08-28T03:08:53.925Z,102.97
2022-08-28T03:11:23.477Z,122.80
2022-08-28T03:13:54.092Z,118.20
2022-08-28T03:16:25.215Z,118.43
2022-08-28T03:18:54.450Z,96.82
2022-08-28T03:21:23.868Z,111.55
2022-08-28T03:23:52.051Z,108.00
2022-08-28T03:26:24.114Z,114.70
2022-08-28T03:28:57.696Z,112.83
2022-08-28T03:31:33.857Z,117.28
2022-08-28T03:34:03.476Z,121.97
2022-08-28T03:36:33.327Z,111.78
2022-08-28T03:39:06.248Z,117.43
2022-08-28T03:41:37.046Z,117.43
2022-08-28T03:44:07.956Z,113.50
2022-08-28T03:46:37.798Z,95.45
2022-08-28T03:49:07.357Z,123.35
2022-08-28T03:51:36.952Z,122.45
2022-08-28T03:54:06.958Z,118.50
2022-08-28T03:56:36.123Z,108.70
2022-08-28T03:59:08.161Z,115.25
2022-08-28T04:01:38.382Z,115.45
2022-08-28T04:04:07.818Z,120.97
2022-08-28T04:06:37.182Z,115.43
2022-08-28T04:09:08.046Z,118.40
2022-08-28T04:11:42.771Z,118.90
2022-08-28T04:14:13.786Z,116.88
2022-08-28T04:16:43.425Z,117.25
2022-08-28T04:19:12.766Z,119.68
2022-08-28T04:21:41.983Z,125.20
2022-08-28T04:24:13.358Z,116.13
2022-08-28T04:26:42.909Z,118.70
2022-08-28T04:29:13.799Z,121.32
2022-08-28T04:31:43.681Z,121.63
2022-08-28T04:34:13.443Z,113.88
2022-08-28T04:36:42.701Z,131.15
2022-08-28T04:39:11.836Z,115.82
2022-08-28T04:41:41.422Z,119.18
2022-08-28T04:44:12.094Z,112.60
2022-08-28T04:46:44.370Z,112.55
2022-08-28T04:49:17.934Z,115.25
2022-08-28T04:51:50.283Z,121.35
2022-08-28T04:54:19.501Z,107.60
2022-08-28T04:56:48.659Z,123.22
2022-08-28T04:59:19.461Z,122.03
2022-08-28T05:01:48.732Z,119.10
2022-08-28T05:04:19.815Z,117.70
2022-08-28T05:06:49.581Z,127.25
2022-08-28T05:09:21.436Z,120.15
2022-08-28T05:11:53.555Z,125.87
2022-08-28T05:14:24.290Z,123.47
2022-08-28T05:16:55.656Z,114.80
2022-08-28T05:19:26.414Z,120.85
2022-08-28T05:21:56.072Z,114.45
2022-08-28T05:24:25.441Z,131.70
2022-08-28T05:26:54.655Z,119.05
2022-08-28T05:29:25.267Z,105.20
2022-08-28T05:31:55.365Z,119.57
2022-08-28T05:34:25.002Z,133.43
2022-08-28T05:36:54.244Z,114.85
2022-08-28T05:39:23.437Z,116.10
2022-08-28T05:41:55.767Z,111.15
2022-08-28T05:44:26.524Z,130.32
2022-08-28T05:46:57.144Z,118.38
2022-08-28T05:49:28.295Z,140.23
2022-08-28T05:51:57.644Z,120.68
2022-08-28T05:54:29.052Z,128.25
2022-08-28T05:56:58.368Z,125.07
2022-08-28T05:59:28.929Z,120.32
2022-08-28T06:02:02.227Z,126.40
2022-08-28T06:04:33.548Z,127.63
2022-08-28T06:07:02.765Z,131.73
2022-08-28T06:09:32.550Z,120.38
2022-08-28T06:12:03.138Z,121.32
2022-08-28T06:14:34.503Z,125.65
2022-08-28T06:17:04.998Z,123.10
2022-08-28T06:19:41.057Z,128.32
2022-08-28T06:22:14.851Z,122.80
2022-08-28T06:24:44.033Z,131.63
2022-08-28T06:27:13.199Z,120.65
2022-08-28T06:29:44.769Z,111.97
2022-08-28T06:32:14.309Z,116.63
2022-08-28T06:34:43.625Z,120.15
2022-08-28T06:37:13.049Z,133.02
2022-08-28T06:39:42.471Z,132.50
2022-08-28T06:42:11.581Z,119.35
2022-08-28T06:44:42.191Z,132.68
2022-08-28T06:47:11.690Z,118.85
2022-08-28T06:49:41.556Z,133.52
2022-08-28T06:52:10.739Z,128.30
2022-08-28T06:54:39.930Z,121.45
2022-08-28T06:57:11.116Z,126.78
2022-08-28T06:59:40.431Z,130.55
2022-08-28T07:02:11.176Z,124.03
2022-08-28T07:04:40.488Z,125.75
2022-08-28T07:07:10.629Z,123.93
2022-08-28T07:09:59.800Z,119.07
2022-08-28T07:12:28.964Z,121.65
2022-08-28T07:14:58.314Z,118.95
2022-08-28T07:17:28.860Z,112.90
2022-08-28T07:19:58.475Z,116.18
2022-08-28T07:22:27.882Z,109.30
2022-08-28T07:24:58.282Z,110.93
2022-08-28T07:27:27.693Z,106.50
2022-08-28T07:29:56.912Z,97.72
2022-08-28T07:32:26.573Z,103.15
2022-08-28T07:34:57.262Z,101.93
2022-08-28T07:37:27.595Z,101.70
2022-08-28T07:39:56.864Z,108.20
2022-08-28T07:42:43.488Z,95.32
2022-08-28T07:45:13.067Z,97.82
2022-08-28T07:47:42.334Z,94.28
2022-08-28T07:50:13.274Z,94.60
2022-08-28T07:52:43.009Z,97.03
2022-08-28T07:55:12.156Z,89.63
2022-08-28T07:57:43.288Z,101.95
2022-08-28T08:00:14.495Z,80.43
2022-08-28T08:02:43.707Z,89.90
2022-08-28T08:05:14.540Z,103.45
2022-08-28T08:07:43.972Z,79.88
2022-08-28T08:10:19.889Z,87.93
2022-08-28T08:12:50.038Z,88.13
2022-08-28T08:15:21.906Z,99.07
2022-08-28T08:17:51.933Z,81.40
2022-08-28T08:20:22.678Z,69.57
2022-08-28T08:22:52.086Z,89.57
2022-08-28T08:25:21.473Z,77.72
2022-08-28T08:27:55.116Z,72.55
2022-08-28T08:30:24.281Z,78.18
2022-08-28T08:32:53.678Z,77.22
2022-08-28T08:35:25.326Z,77.55
2022-08-28T08:37:54.460Z,76.47
2022-08-28T08:40:23.704Z,81.70
2022-08-28T08:42:57.220Z,82.72
2022-08-28T08:45:29.527Z,83.85
2022-08-28T08:47:58.858Z,80.80
2022-08-28T08:50:32.642Z,78.65
2022-08-28T08:53:24.426Z,79.68
2022-08-28T08:55:55.810Z,75.10
2022-08-28T08:58:32.889Z,79.72
2022-08-28T09:01:10.366Z,80.78
2022-08-28T09:03:56.786Z,78.93
2022-08-28T09:06:41.134Z,78.25
2022-08-28T09:09:19.769Z,84.40
2022-08-28T09:11:56.454Z,81.90
2022-08-28T09:14:38.306Z,83.57
2022-08-28T09:17:09.677Z,83.15
2022-08-28T09:19:38.993Z,85.00
2022-08-28T09:22:09.813Z,78.47
2022-08-28T09:24:42.294Z,75.50
2022-08-28T09:32:35.138Z,81.70
2022-08-28T09:35:14.163Z,68.55
2022-08-28T09:37:45.611Z,69.72
2022-08-28T09:40:26.236Z,69.20
2022-08-28T09:43:30.641Z,55.80
2022-08-28T09:46:03.558Z,46.20
2022-08-28T09:48:37.080Z,69.55
2022-08-28T09:51:08.557Z,47.03
2022-08-28T09:53:54.905Z,61.15
2022-08-28T09:56:29.672Z,56.15
2022-08-28T09:59:03.646Z,64.28
2022-08-28T10:01:49.069Z,49.35
2022-08-28T10:04:44.650Z,45.35
2022-08-28T10:07:24.558Z,45.95
2022-08-28T10:10:11.050Z,49.33
2022-08-28T10:12:50.835Z,51.47
2022-08-28T10:15:27.702Z,57.90
2022-08-28T10:18:34.141Z,47.22
2022-08-28T10:21:14.910Z,63.05
2022-08-28T10:24:05.409Z,54.47
2022-08-28T10:26:45.861Z,59.40
2022-08-28T10:29:32.687Z,54.88
2022-08-28T10:32:24.845Z,51.28
2022-08-28T10:35:05.032Z,54.67
2022-08-28T10:37:52.142Z,55.55
2022-08-28T10:40:29.630Z,58.30
2022-08-28T10:43:06.074Z,59.55
2022-08-28T10:45:36.237Z,73.43
2022-08-28T10:48:12.272Z,65.22
2022-08-28T10:50:47.179Z,61.75
2022-08-28T10:53:21.857Z,63.67
2022-08-28T10:55:57.723Z,65.88
2022-08-28T10:58:30.135Z,67.20
2022-08-28T11:03:41.907Z,74.72
2022-08-28T11:06:22.603Z,73.00
2022-08-28T11:08:56.909Z,69.05
2022-08-28T11:11:45.349Z,69.95
2022-08-28T11:14:29.991Z,79.50
2022-08-28T11:17:03.445Z,78.70
2022-08-28T11:20:01.992Z,77.05
2022-08-28T11:22:38.615Z,76.82
2022-08-28T11:25:19.715Z,79.70
2022-08-28T11:28:19.850Z,83.00
2022-08-28T11:31:16.359Z,92.20
2022-08-28T11:34:01.274Z,96.97
2022-08-28T11:37:03.629Z,78.68
2022-08-28T11:39:33.137Z,76.75
2022-08-28T11:42:37.406Z,92.10
2022-08-28T11:45:08.123Z,80.70
2022-08-28T11:47:56.608Z,86.63
2022-08-28T11:50:32.347Z,78.00
2022-08-28T11:53:39.778Z,77.93
2022-08-28T11:56:37.213Z,76.97
2022-08-28T11:59:37.302Z,83.55
2022-08-28T12:02:50.751Z,73.88
2022-08-28T12:05:54.380Z,76.72
2022-08-28T12:09:10.171Z,74.50
2022-08-28T12:12:02.819Z,71.22
2022-08-28T12:15:09.404Z,76.43
2022-08-28T12:17:53.724Z,68.97
2022-08-28T12:21:02.246Z,72.10
2022-08-28T12:23:40.039Z,66.60
2022-08-28T12:26:23.990Z,64.10
2022-08-28T12:28:58.277Z,67.28
2022-08-28T12:32:18.914Z,69.82
2022-08-28T12:35:19.437Z,74.22
2022-08-28T12:38:03.798Z,68.68
2022-08-28T12:40:50.551Z,70.32
2022-08-28T12:43:34.614Z,74.43
2022-08-28T12:46:19.131Z,66.78
2022-08-28T12:48:52.798Z,65.47
2022-08-28T12:51:24.691Z,66.05
2022-08-28T12:53:58.502Z,62.70
2022-08-28T12:56:32.653Z,68.15
2022-08-28T12:59:27.696Z,63.92
2022-08-28T13:02:04.090Z,64.97
2022-08-28T13:04:37.565Z,66.13
2022-08-28T13:07:12.494Z,66.70
2022-08-28T13:09:51.588Z,72.80
2022-08-28T13:12:37.845Z,72.57
2022-08-28T13:15:14.561Z,74.85
2022-08-28T13:17:55.041Z,75.28
2022-08-28T13:20:30.619Z,79.88
2022-08-28T13:23:01.690Z,87.43
2022-08-28T13:25:36.962Z,86.85
2022-08-28T13:28:17.827Z,72.97
2022-08-28T13:30:59.248Z,78.35
2022-08-28T13:33:28.862Z,81.00
2022-08-28T13:35:58.053Z,80.78
2022-08-28T13:38:27.450Z,79.90
2022-08-28T13:41:03.810Z,77.18
2022-08-28T13:43:47.468Z,81.25
2022-08-28T13:46:18.328Z,125.57
2022-08-28T13:48:47.773Z,85.10
2022-08-28T13:51:20.721Z,73.50
2022-08-28T13:53:50.544Z,83.78
2022-08-28T13:56:23.181Z,83.25
2022-08-28T13:58:57.818Z,83.53
2022-08-28T14:01:48.486Z,76.97
2022-08-28T14:04:17.094Z,80.03
2022-08-28T14:06:46.301Z,73.57
2022-08-28T14:09:17.736Z,73.68
2022-08-28T14:11:49.925Z,71.45
2022-08-28T14:14:20.066Z,79.47
2022-08-28T14:16:52.650Z,78.85
2022-08-28T14:19:22.650Z,69.30
2022-08-28T14:21:51.892Z,68.32
2022-08-28T14:24:21.318Z,71.72
2022-08-28T14:26:55.658Z,76.72
2022-08-28T14:29:24.913Z,69.35
2022-08-28T14:31:54.108Z,71.72
2022-08-28T14:34:24.517Z,64.22
2022-08-28T14:36:56.160Z,75.03
2022-08-28T14:39:27.935Z,70.87
2022-08-28T14:41:59.131Z,61.40
2022-08-28T14:44:28.862Z,68.28
2022-08-28T14:46:58.190Z,65.40
2022-08-28T14:49:28.992Z,71.20
2022-08-28T14:51:58.380Z,72.82
2022-08-28T14:54:27.855Z,70.47
2022-08-28T14:56:58.633Z,74.30
2022-08-28T14:59:30.532Z,65.93
2022-08-28T15:02:02.400Z,67.13
2022-08-28T15:04:37.816Z,66.30
2022-08-28T15:07:13.153Z,61.67
2022-08-28T15:09:44.111Z,67.50
2022-08-28T15:12:14.873Z,66.72
2022-08-28T15:14:54.947Z,62.45
2022-08-28T15:17:33.443Z,57.58
2022-08-28T15:20:05.650Z,66.43
2022-08-28T15:22:34.981Z,60.88
2022-08-28T15:25:06.913Z,66.05
2022-08-28T15:27:37.984Z,69.68
2022-08-28T15:30:08.635Z,67.38
2022-08-28T15:32:37.973Z,60.13
2022-08-28T15:35:08.597Z,84.38
2022-08-28T15:37:37.852Z,66.05
2022-08-28T15:40:26.425Z,77.50
2022-08-28T15:42:57.780Z,66.60
2022-08-28T15:45:27.530Z,66.72
2022-08-28T15:47:58.553Z,66.75
2022-08-28T15:50:27.805Z,66.93
2022-08-28T15:52:57.085Z,73.07
2022-08-28T15:55:28.597Z,76.75
2022-08-28T15:57:59.279Z,72.50
2022-08-28T16:00:29.088Z,72.57
2022-08-28T16:03:01.000Z,74.25
2022-08-28T16:05:40.660Z,77.05
2022-08-28T16:08:11.641Z,77.45
2022-08-28T16:10:41.187Z,73.88
2022-08-28T16:13:11.890Z,86.72
2022-08-28T16:15:41.310Z,70.95
2022-08-28T16:18:10.723Z,74.32
2022-08-28T16:20:41.097Z,78.75
2022-08-28T16:23:11.998Z,72.45
2022-08-28T16:25:42.010Z,69.18
2022-08-28T16:28:12.787Z,77.30
2022-08-28T16:30:43.875Z,70.53
2022-08-28T16:33:14.049Z,69.70
2022-08-28T16:35:49.511Z,78.65
2022-08-28T16:38:25.175Z,81.20
2022-08-28T16:40:54.442Z,78.35
2022-08-28T16:43:25.695Z,87.65
2022-08-28T16:45:54.914Z,82.70
2022-08-28T16:48:24.076Z,83.45
2022-08-28T16:50:53.350Z,77.78
2022-08-28T16:53:26.997Z,80.45
2022-08-28T16:55:56.611Z,83.97
2022-08-28T16:58:27.940Z,85.65
2022-08-28T17:00:57.387Z,88.90
2022-08-28T17:03:26.895Z,79.50
2022-08-28T17:05:58.210Z,89.07
2022-08-28T17:08:27.710Z,80.93
2022-08-28T17:10:58.712Z,77.07
2022-08-28T17:13:29.384Z,71.55
2022-08-28T17:15:58.752Z,74.45
2022-08-28T17:18:27.998Z,74.95
2022-08-28T17:21:14.838Z,71.40
2022-08-28T17:23:44.275Z,68.00
2022-08-28T17:26:14.570Z,75.78
2022-08-28T17:28:46.498Z,79.63
2022-08-28T17:31:16.005Z,69.68
2022-08-28T17:33:47.143Z,75.68
2022-08-28T17:36:32.386Z,71.20
2022-08-28T17:39:03.189Z,74.13
2022-08-28T17:41:33.614Z,79.80
2022-08-28T17:44:05.676Z,70.85
2022-08-28T17:46:37.962Z,78.90
2022-08-28T17:49:09.225Z,77.75
2022-08-28T17:51:42.369Z,79.63
2022-08-28T17:54:13.997Z,79.80
2022-08-28T17:56:43.900Z,76.05
2022-08-28T17:59:15.366Z,79.57
2022-08-28T18:01:46.585Z,73.75
2022-08-28T18:04:23.269Z,79.80
2022-08-28T18:06:54.955Z,79.10
2022-08-28T18:09:25.352Z,69.30
2022-08-28T18:11:55.085Z,74.60
2022-08-28T18:14:26.493Z,75.68
2022-08-28T18:16:56.691Z,77.32
2022-08-28T18:19:26.198Z,76.75
2022-08-28T18:21:55.902Z,80.38
2022-08-28T18:24:26.029Z,78.18
2022-08-28T18:26:57.370Z,69.47
2022-08-28T18:29:28.114Z,72.28
2022-08-28T18:31:57.548Z,81.57
2022-08-28T18:34:26.677Z,72.72
2022-08-28T18:36:55.848Z,86.70
2022-08-28T18:39:29.665Z,84.03
2022-08-28T18:41:59.893Z,83.35
2022-08-28T18:44:32.025Z,74.85
2022-08-28T18:47:01.411Z,75.97
2022-08-28T18:49:30.683Z,81.82
2022-08-28T18:51:59.907Z,101.85
2022-08-28T18:54:29.667Z,87.82
2022-08-28T18:57:04.194Z,85.32
2022-08-28T18:59:35.427Z,108.38
2022-08-28T19:02:04.752Z,94.82
2022-08-28T19:04:33.883Z,109.75
2022-08-28T19:07:03.203Z,92.50
2022-08-28T19:09:34.884Z,107.72
2022-08-28T19:12:05.921Z,86.65
2022-08-28T19:14:37.295Z,100.53
2022-08-28T19:17:06.725Z,93.15
2022-08-28T19:19:36.080Z,106.72
2022-08-28T19:22:06.660Z,96.32
2022-08-28T19:24:35.881Z,98.28
2022-08-28T19:27:05.273Z,112.78
2022-08-28T19:29:35.925Z,98.75
2022-08-28T19:32:06.345Z,122.63
2022-08-28T19:34:36.148Z,107.90
2022-08-28T19:37:06.433Z,109.25
2022-08-28T19:39:35.761Z,111.93
2022-08-28T19:42:05.192Z,107.90
2022-08-28T19:44:39.429Z,98.80
2022-08-28T19:47:09.087Z,109.00
2022-08-28T19:49:41.751Z,104.28
2022-08-28T19:52:11.234Z,97.35
2022-08-28T19:54:42.447Z,110.85
2022-08-28T19:57:11.813Z,112.88
2022-08-28T19:59:42.750Z,101.78
2022-08-28T20:02:14.538Z,119.22
2022-08-28T20:04:43.915Z,116.68
2022-08-28T20:07:13.312Z,131.32
2022-08-28T20:09:42.691Z,127.85
2022-08-28T20:12:11.999Z,125.53
2022-08-28T20:14:42.749Z,107.07
2022-08-28T20:17:15.313Z,117.18
2022-08-28T20:19:45.578Z,129.70
2022-08-28T20:22:15.370Z,111.35
2022-08-28T20:24:45.308Z,125.85
2022-08-28T20:27:14.644Z,125.93
2022-08-28T20:29:45.291Z,115.88
2022-08-28T20:32:14.550Z,124.75
2022-08-28T20:34:44.605Z,129.52
2022-08-28T20:37:17.639Z,119.55
2022-08-28T20:42:16.693Z,125.68
2022-08-28T20:44:47.654Z,136.20
2022-08-28T20:47:17.079Z,136.02
2022-08-28T20:49:47.710Z,130.38
2022-08-28T20:52:17.039Z,135.77
2022-08-28T20:54:46.315Z,135.25
2022-08-28T20:57:21.183Z,126.88
2022-08-28T20:59:54.094Z,122.30
2022-08-28T21:02:26.289Z,128.48
2022-08-28T21:04:56.737Z,128.65
2022-08-28T21:07:27.151Z,147.25
2022-08-28T21:10:05.456Z,137.15
2022-08-28T21:12:36.380Z,122.40
2022-08-28T21:15:09.705Z,124.70
2022-08-28T21:17:39.050Z,150.10
2022-08-28T21:20:12.803Z,120.68
2022-08-28T21:22:42.786Z,128.80
2022-08-28T21:25:13.548Z,126.18
2022-08-28T21:27:44.220Z,122.43
2022-08-28T21:30:19.194Z,125.57
2022-08-28T21:32:50.036Z,125.53
2022-08-28T21:35:21.002Z,128.45
2022-08-28T21:37:51.206Z,125.88
2022-08-28T21:40:20.733Z,127.97
2022-08-28T21:42:50.055Z,124.07
2022-08-28T21:45:22.531Z,115.63
2022-08-28T21:47:51.850Z,137.13
2022-08-28T21:50:21.204Z,141.38
2022-08-28T21:52:50.338Z,131.43
2022-08-28T21:55:19.508Z,132.10
2022-08-28T21:57:48.998Z,136.40
2022-08-28T22:00:23.280Z,124.65
2022-08-28T22:02:52.694Z,117.70
2022-08-28T22:05:22.127Z,137.52
2022-08-28T22:07:51.369Z,129.85
2022-08-28T22:10:20.570Z,125.28
2022-08-28T22:12:49.829Z,132.88
2022-08-28T22:15:20.533Z,121.88
2022-08-28T22:17:49.737Z,124.40
2022-08-28T22:20:19.298Z,136.77
2022-08-28T22:23:06.141Z,127.97
2022-08-28T22:25:40.904Z,122.03
2022-08-28T22:28:11.821Z,127.57
2022-08-28T22:30:42.516Z,121.13
2022-08-28T22:33:12.201Z,134.65
2022-08-28T22:35:41.395Z,136.85
2022-08-28T22:38:11.233Z,142.15
2022-08-28T22:40:40.559Z,132.85
2022-08-28T22:43:09.923Z,114.30
2022-08-28T22:45:39.616Z,125.90
2022-08-28T22:48:11.647Z,122.47
2022-08-28T22:50:42.353Z,117.97
2022-08-28T22:53:12.819Z,129.52
2022-08-28T22:55:43.892Z,129.77
2022-08-28T22:58:16.934Z,130.80
2022-08-28T23:00:46.407Z,134.48
2022-08-28T23:03:17.254Z,127.82
2022-08-28T23:05:46.822Z,125.88
2022-08-28T23:08:16.109Z,132.30
2022-08-28T23:10:58.413Z,114.32
2022-08-28T23:13:28.877Z,119.93
2022-08-28T23:15:58.585Z,123.45
2022-08-28T23:18:41.602Z,121.57
2022-08-28T23:21:20.582Z,139.57
2022-08-28T23:23:49.854Z,112.95
2022-08-28T23:26:20.326Z,129.98
2022-08-28T23:28:49.905Z,114.07
2022-08-28T23:31:19.313Z,120.50
2022-08-28T23:33:50.249Z,121.93
2022-08-28T23:36:19.591Z,118.28
2022-08-28T23:38:48.811Z,121.82
2022-08-28T23:41:18.511Z,118.28
2022-08-28T23:43:53.416Z,112.63
2022-08-28T23:46:26.232Z,112.20
2022-08-28T23:48:57.070Z,128.95
2022-08-28T23:51:26.608Z,127.47
2022-08-28T23:53:58.913Z,120.50
2022-08-28T23:56:28.391Z,123.60
2022-08-28T23:58:57.627Z,115.15
